Time;durP1;ratioP1;P1;durP2;ratioP2;P2;SDS_P1;SDS_P2;PMS_P1;PMS_P2;Temp;Humidity;BMP_temperature;BMP_pressure;BME280_temperature;BME280_humidity;BME280_pressure;Samples;Min_cycle;Max_cycle;Signal;HPM_P1;HPM_P2
2022/01/07 00:01:11;;;;;;;17.63;8.32;;;;;;;4.27;76.11;99691.28;5089887;28;20044;-60
2022/01/07 00:03:38;;;;;;;22.25;9.45;;;;;;;4.27;75.98;99680.88;5091356;28;20507;-63
2022/01/07 00:06:05;;;;;;;24.50;8.75;;;;;;;4.28;75.54;99679.13;5091616;28;20092;-61
2022/01/07 00:08:32;;;;;;;26.92;9.48;;;;;;;4.26;75.52;99671.34;5091143;28;20117;-63
2022/01/07 00:10:59;;;;;;;25.30;9.68;;;;;;;4.26;75.09;99671.34;5091130;28;20097;-63
2022/01/07 00:13:26;;;;;;;20.45;9.60;;;;;;;4.27;75.56;99669.59;5090312;28;20454;-61
2022/01/07 00:15:54;;;;;;;27.67;10.52;;;;;;;4.26;76.09;99655.72;5091377;28;20051;-61
2022/01/07 00:18:23;;;;;;;18.30;8.35;;;;;;;4.27;75.31;99662.63;5091276;28;20048;-62
2022/01/07 00:20:51;;;;;;;22.27;8.30;;;;;;;4.26;75.09;99658.31;5089468;28;20538;-61
2022/01/07 00:23:18;;;;;;;21.88;9.20;;;;;;;4.26;75.48;99647.91;5091012;28;20109;-61
2022/01/07 00:25:45;;;;;;;20.73;8.00;;;;;;;4.27;75.86;99647.00;5091267;28;20048;-60
2022/01/07 00:28:11;;;;;;;16.92;8.73;;;;;;;4.29;75.53;99652.16;5091245;28;20056;-62
2022/01/07 00:30:38;;;;;;;24.27;9.23;;;;;;;4.28;75.15;99642.66;5091095;28;20090;-60
2022/01/07 00:33:06;;;;;;;22.23;8.13;;;;;;;4.30;75.67;99644.28;5090987;28;20048;-62
2022/01/07 00:35:34;;;;;;;20.15;8.32;;;;;;;4.30;75.39;99636.47;5090718;28;20456;-63
2022/01/07 00:38:01;;;;;;;21.77;7.78;;;;;;;4.29;74.81;99634.78;5091210;28;20537;-60
2022/01/07 00:40:28;;;;;;;21.50;8.75;;;;;;;4.33;75.52;99634.69;5089511;28;20047;-61
2022/01/07 00:42:54;;;;;;;16.67;8.10;;;;;;;4.33;75.69;99622.50;5090793;28;20047;-61
2022/01/07 00:45:23;;;;;;;21.80;8.55;;;;;;;4.32;74.33;99631.22;5090685;28;20101;-63
2022/01/07 00:47:51;;;;;;;21.80;8.48;;;;;;;4.32;74.94;99618.19;5089211;28;20078;-61
2022/01/07 00:50:20;;;;;;;14.63;6.90;;;;;;;4.33;74.70;99614.66;5089265;28;20496;-62
2022/01/07 00:52:48;;;;;;;18.60;7.70;;;;;;;4.34;75.03;99603.34;5089664;28;20129;-60
2022/01/07 00:55:15;;;;;;;18.67;7.40;;;;;;;4.35;75.01;99599.00;5090959;28;20632;-60
2022/01/07 00:57:41;;;;;;;20.15;8.25;;;;;;;4.34;74.86;99595.53;5090449;28;20048;-63
2022/01/07 01:00:13;;;;;;;15.05;7.30;;;;;;;4.34;74.15;99592.09;5090554;28;20160;-61
2022/01/07 01:02:40;;;;;;;21.80;6.45;;;;;;;4.36;74.33;99592.88;5089417;28;20052;-60
2022/01/07 01:05:09;;;;;;;16.60;6.15;;;;;;;4.36;74.56;99585.06;5090822;28;20542;-63
2022/01/07 01:07:36;;;;;;;15.23;6.10;;;;;;;4.37;74.64;99581.56;5090530;28;20048;-61
2022/01/07 01:10:07;;;;;;;18.00;6.93;;;;;;;4.35;73.36;99588.56;5090435;28;20644;-60
2022/01/07 01:12:39;;;;;;;22.38;6.88;;;;;;;4.34;72.51;99574.69;5089300;28;20047;-61
2022/01/07 01:15:08;;;;;;;13.90;6.43;;;;;;;4.36;73.59;99572.88;5089000;28;20058;-60
2022/01/07 01:17:35;;;;;;;15.00;6.22;;;;;;;4.40;75.12;99573.63;5089421;28;20125;-61
2022/01/07 01:20:05;;;;;;;16.70;5.85;;;;;;;4.38;74.26;99565.84;5089878;28;20105;-61
2022/01/07 01:22:31;;;;;;;16.15;6.53;;;;;;;4.40;74.58;99561.44;5090132;28;20416;-60
2022/01/07 01:24:58;;;;;;;24.52;7.40;;;;;;;4.41;74.67;99559.72;5089892;28;20067;-63
2022/01/07 01:27:24;;;;;;;13.15;5.88;;;;;;;4.41;74.23;99563.16;5090301;28;20416;-60
2022/01/07 01:29:51;;;;;;;14.18;6.40;;;;;;;4.44;74.13;99559.56;5090016;28;20048;-60
2022/01/07 01:32:18;;;;;;;18.35;6.70;;;;;;;4.46;74.52;99559.53;5089168;28;20074;-60
2022/01/07 01:34:44;;;;;;;10.75;6.00;;;;;;;4.45;74.51;99544.81;5090439;28;20184;-62
2022/01/07 01:37:11;;;;;;;13.90;6.35;;;;;;;4.42;73.11;99551.81;5090373;28;20101;-60
2022/01/07 01:39:37;;;;;;;14.02;6.07;;;;;;;4.45;73.92;99548.25;5089887;28;20656;-59
2022/01/07 01:42:05;;;;;;;14.85;5.68;;;;;;;4.45;74.73;99535.22;5088502;28;20050;-61
2022/01/07 01:44:32;;;;;;;15.95;6.03;;;;;;;4.44;74.04;99541.34;5089969;28;20044;-62
2022/01/07 01:46:58;;;;;;;10.95;5.78;;;;;;;4.45;72.96;99537.81;5090176;28;20078;-63
2022/01/07 01:49:25;;;;;;;18.52;6.30;;;;;;;4.46;74.38;99547.34;5089722;28;20064;-62
2022/01/07 01:51:52;;;;;;;16.73;7.20;;;;;;;4.48;73.85;99537.72;5090010;28;20052;-61
2022/01/07 01:54:20;;;;;;;12.73;5.60;;;;;;;4.48;74.22;99548.13;5089203;28;20066;-60
2022/01/07 01:56:47;;;;;;;16.35;6.10;;;;;;;4.51;74.25;99537.63;5089731;28;20052;-61
2022/01/07 01:59:13;;;;;;;15.00;5.60;;;;;;;4.50;73.40;99532.44;5089995;28;20052;-62
2022/01/07 02:01:40;;;;;;;17.15;6.25;;;;;;;4.50;73.81;99538.53;5089846;28;20048;-61
2022/01/07 02:04:07;;;;;;;12.02;5.80;;;;;;;4.54;74.25;99529.69;5089939;28;20404;-64
2022/01/07 02:06:35;;;;;;;11.07;5.63;;;;;;;4.55;74.08;99527.91;5089858;28;20048;-61
2022/01/07 02:09:02;;;;;;;13.25;5.50;;;;;;;4.53;73.57;99517.53;5088484;28;20105;-62
2022/01/07 02:11:31;;;;;;;16.90;5.38;;;;;;;4.53;73.55;99514.94;5089376;28;20106;-63
2022/01/07 02:13:57;;;;;;;18.23;6.90;;;;;;;4.52;73.39;99518.47;5089698;28;20063;-61
2022/01/07 02:16:26;;;;;;;14.40;5.78;;;;;;;4.53;73.96;99511.50;5089638;28;20094;-60
2022/01/07 02:18:53;;;;;;;12.15;5.70;;;;;;;4.54;74.13;99505.38;5088759;28;20048;-61
2022/01/07 02:21:20;;;;;;;14.63;6.07;;;;;;;4.54;73.32;99510.59;5089353;28;20044;-61
2022/01/07 02:23:47;;;;;;;14.27;5.53;;;;;;;4.54;73.81;99511.44;5089883;28;20377;-63
2022/01/07 02:26:14;;;;;;;10.18;5.63;;;;;;;4.53;73.46;99493.25;5089607;28;20056;-62
2022/01/07 02:28:41;;;;;;;17.15;6.18;;;;;;;4.52;73.41;99488.94;5088447;28;20059;-60
2022/01/07 02:31:10;;;;;;;15.95;6.25;;;;;;;4.48;73.04;99482.97;5089486;28;20048;-61
2022/01/07 02:33:36;;;;;;;22.50;6.80;;;;;;;4.49;73.40;99489.06;5089659;28;20052;-61
2022/01/07 02:36:07;;;;;;;15.00;5.88;;;;;;;4.43;71.14;99485.78;5090161;28;20048;-61
2022/01/07 02:38:36;;;;;;;12.48;5.78;;;;;;;4.45;73.75;99471.81;5093243;28;20121;-61
2022/01/07 02:41:03;;;;;;;13.57;6.05;;;;;;;4.43;73.72;99471.88;5091771;28;20052;-60
2022/01/07 02:43:31;;;;;;;15.77;6.40;;;;;;;4.37;72.46;99487.75;5093397;28;21024;-60
2022/01/07 02:45:57;;;;;;;14.60;6.00;;;;;;;4.34;73.65;99473.03;5091943;28;20055;-61
2022/01/07 02:48:24;;;;;;;15.77;6.88;;;;;;;4.31;73.78;99465.34;5093110;28;20048;-60
2022/01/07 02:50:51;;;;;;;11.75;5.90;;;;;;;4.24;73.52;99467.34;5092778;28;20048;-61
2022/01/07 02:53:17;;;;;;;15.30;7.00;;;;;;;4.21;73.75;99464.81;5092803;28;20085;-60
2022/01/07 02:55:45;;;;;;;16.25;6.78;;;;;;;4.16;74.13;99451.13;5092979;28;20105;-63
2022/01/07 02:58:11;;;;;;;13.65;6.07;;;;;;;4.12;74.28;99449.53;5092844;28;20593;-61
2022/01/07 03:00:38;;;;;;;20.45;6.18;;;;;;;4.08;74.67;99440.97;5092752;28;20051;-60
2022/01/07 03:03:07;;;;;;;15.20;6.75;;;;;;;4.04;74.71;99442.81;5092695;28;20048;-61
2022/01/07 03:05:34;;;;;;;14.02;7.30;;;;;;;4.02;75.43;99436.84;5091479;28;20121;-61
2022/01/07 03:08:01;;;;;;;17.63;7.30;;;;;;;4.00;75.08;99420.41;5091626;28;20408;-60
2022/01/07 03:10:30;;;;;;;16.25;7.25;;;;;;;3.97;74.73;99432.69;5092438;28;20052;-59
2022/01/07 03:13:01;;;;;;;19.17;7.68;;;;;;;3.93;73.93;99421.53;5091327;28;20135;-60
2022/01/07 03:15:29;;;;;;;13.68;6.45;;;;;;;3.92;75.38;99422.41;5092448;28;20542;-60
2022/01/07 03:17:56;;;;;;;14.55;7.20;;;;;;;3.90;75.17;99411.22;5091312;28;20044;-61
2022/01/07 03:20:23;;;;;;;16.35;7.72;;;;;;;3.86;75.01;99420.91;5090633;28;20589;-62
2022/01/07 03:22:50;;;;;;;16.25;6.55;;;;;;;3.83;75.37;99399.31;5091051;28;20044;-60
2022/01/07 03:25:17;;;;;;;11.93;7.15;;;;;;;3.83;75.39;99394.97;5092383;28;20048;-63
2022/01/07 03:27:44;;;;;;;17.15;7.05;;;;;;;3.81;75.26;99395.91;5091172;28;20052;-62
2022/01/07 03:30:15;;;;;;;20.65;7.38;;;;;;;3.76;75.11;99377.84;5092115;28;20056;-60
2022/01/07 03:32:42;;;;;;;14.90;6.70;;;;;;;3.76;76.00;99373.50;5090705;28;20102;-60
2022/01/07 03:35:11;;;;;;;15.98;6.60;;;;;;;3.76;76.01;99373.50;5092288;28;20056;-62
2022/01/07 03:37:39;;;;;;;16.40;7.05;;;;;;;3.76;75.92;99365.69;5090804;28;20051;-61
2022/01/07 03:40:08;;;;;;;13.70;6.80;;;;;;;3.75;75.72;99350.13;5091881;28;20052;-61
2022/01/07 03:42:35;;;;;;;15.25;6.38;;;;;;;3.76;76.11;99349.19;5090571;28;20048;-60
2022/01/07 03:45:03;;;;;;;17.55;6.30;;;;;;;3.78;76.24;99344.81;5091838;28;20052;-61
2022/01/07 03:47:29;;;;;;;12.40;7.00;;;;;;;3.79;75.58;99346.50;5090235;28;20105;-60
2022/01/07 03:49:56;;;;;;;11.48;6.75;;;;;;;3.80;75.98;99348.19;5091561;28;20097;-61
2022/01/07 03:52:23;;;;;;;14.73;7.10;;;;;;;3.82;76.64;99325.56;5091933;28;20090;-61
2022/01/07 03:54:50;;;;;;;20.98;6.72;;;;;;;3.83;76.25;99342.88;5091715;28;20051;-63
2022/01/07 03:57:18;;;;;;;14.23;7.05;;;;;;;3.86;76.11;99347.13;5091692;28;20074;-62
2022/01/07 03:59:44;;;;;;;14.73;7.13;;;;;;;3.86;75.51;99350.59;5090202;28;20044;-61
2022/01/07 04:02:11;;;;;;;14.43;6.95;;;;;;;3.88;75.97;99350.50;5091347;28;20633;-59
2022/01/07 04:04:38;;;;;;;16.77;6.88;;;;;;;3.86;75.63;99354.94;5090147;28;20058;-61
2022/01/07 04:07:04;;;;;;;13.90;7.00;;;;;;;3.82;75.17;99346.41;5091616;28;20044;-60
2022/01/07 04:09:31;;;;;;;13.82;6.50;;;;;;;3.76;75.47;99341.41;5091343;28;20048;-61
2022/01/07 04:11:59;;;;;;;16.65;7.10;;;;;;;3.75;75.28;99350.97;5091345;28;20055;-62
2022/01/07 04:14:26;;;;;;;17.67;7.10;;;;;;;3.71;75.47;99343.31;5089734;28;20573;-60
2022/01/07 04:16:53;;;;;;;12.50;6.10;;;;;;;3.67;75.37;99353.00;5091328;28;20404;-61
2022/01/07 04:19:20;;;;;;;16.48;6.55;;;;;;;3.62;75.40;99353.16;5091188;28;20056;-61
2022/01/07 04:21:49;;;;;;;19.85;7.38;;;;;;;3.59;75.72;99345.44;5090119;28;20447;-62
2022/01/07 04:24:16;;;;;;;12.48;7.00;;;;;;;3.55;75.79;99333.44;5091186;28;20051;-60
2022/01/07 04:26:43;;;;;;;13.52;7.00;;;;;;;3.51;75.56;99334.44;5091425;28;20059;-64
2022/01/07 04:29:10;;;;;;;13.63;7.00;;;;;;;3.48;75.71;99335.41;5090856;28;20109;-60
2022/01/07 04:31:37;;;;;;;15.20;6.97;;;;;;;3.40;75.58;99345.22;5089675;28;20044;-60
2022/01/07 04:34:04;;;;;;;13.27;6.88;;;;;;;3.38;76.02;99334.03;5091043;28;20044;-60
2022/01/07 04:36:30;;;;;;;18.27;7.22;;;;;;;3.33;76.55;99334.16;5091062;28;20102;-62
2022/01/07 04:38:57;;;;;;;11.82;6.90;;;;;;;3.31;76.60;99332.53;5090833;28;20048;-61
2022/01/07 04:41:23;;;;;;;15.68;7.03;;;;;;;3.28;76.80;99317.88;5090555;28;20077;-61
2022/01/07 04:43:50;;;;;;;17.92;8.10;;;;;;;3.25;76.92;99317.97;5090939;28;20120;-64
2022/01/07 04:46:16;;;;;;;13.07;8.25;;;;;;;3.25;76.77;99315.38;5090775;28;20052;-62
2022/01/07 04:48:43;;;;;;;19.50;8.70;;;;;;;3.22;77.18;99318.09;5090791;28;20055;-61
2022/01/07 04:51:10;;;;;;;14.57;8.38;;;;;;;3.20;77.05;99309.47;5090373;28;20443;-59
2022/01/07 04:53:36;;;;;;;13.77;7.95;;;;;;;3.20;77.05;99306.88;5090447;28;20506;-62
2022/01/07 04:56:03;;;;;;;16.73;8.13;;;;;;;3.20;77.51;99301.69;5089141;28;20052;-60
2022/01/07 04:58:30;;;;;;;14.23;8.38;;;;;;;3.18;77.51;99312.13;5089866;28;20056;-60
2022/01/07 05:00:56;;;;;;;22.52;9.63;;;;;;;3.18;77.54;99304.31;5090621;28;20064;-61
2022/01/07 05:03:23;;;;;;;16.50;8.55;;;;;;;3.20;77.83;99304.28;5090551;28;20493;-61
2022/01/07 05:06:01;;;;;;;18.92;8.93;;;;;;;3.21;77.77;99306.00;5090492;28;20444;-62
2022/01/07 05:08:28;;;;;;;14.30;8.35;;;;;;;3.24;77.91;99304.13;5090401;28;20048;-61
2022/01/07 05:10:54;;;;;;;15.30;8.77;;;;;;;3.24;77.98;99304.13;5090165;28;20530;-60
2022/01/07 05:13:21;;;;;;;18.75;9.25;;;;;;;3.27;78.41;99300.56;5090237;28;20101;-61
2022/01/07 05:15:47;;;;;;;15.20;9.10;;;;;;;3.29;78.22;99292.72;5090168;28;20081;-61
2022/01/07 05:18:14;;;;;;;15.32;9.23;;;;;;;3.31;78.18;99289.16;5090194;28;20407;-60
2022/01/07 05:20:41;;;;;;;12.48;7.63;;;;;;;3.34;78.38;99283.00;5090022;28;20089;-60
2022/01/07 05:23:07;;;;;;;18.13;10.13;;;;;;;3.36;78.26;99288.97;5090291;28;20184;-62
2022/01/07 05:25:34;;;;;;;16.35;9.15;;;;;;;3.38;78.44;99289.81;5090493;28;20056;-60
2022/01/07 05:28:01;;;;;;;15.35;8.60;;;;;;;3.40;78.70;99285.38;5090274;28;20055;-60
2022/01/07 05:30:27;;;;;;;18.75;9.30;;;;;;;3.44;78.29;99289.56;5090123;28;20056;-63
2022/01/07 05:32:54;;;;;;;14.52;8.75;;;;;;;3.45;78.50;99278.28;5090314;28;20094;-60
2022/01/07 05:35:20;;;;;;;14.73;9.30;;;;;;;3.48;78.47;99278.16;5090164;28;20531;-61
2022/01/07 05:37:47;;;;;;;14.35;9.10;;;;;;;3.51;78.31;99270.25;5089999;28;20055;-61
2022/01/07 05:40:14;;;;;;;20.35;10.02;;;;;;;3.50;78.07;99275.50;5090015;28;20128;-61
2022/01/07 05:42:41;;;;;;;20.88;9.98;;;;;;;3.50;77.62;99278.97;5090109;28;20101;-60
2022/01/07 05:45:08;;;;;;;16.80;10.43;;;;;;;3.50;78.08;99263.34;5090054;28;20105;-60
2022/01/07 05:47:35;;;;;;;19.83;10.30;;;;;;;3.53;78.22;99267.59;5088898;28;20052;-61
2022/01/07 05:50:01;;;;;;;22.05;11.07;;;;;;;3.52;78.02;99253.72;5089593;28;20048;-60
2022/01/07 05:52:28;;;;;;;19.00;9.65;;;;;;;3.56;78.52;99264.03;5088878;28;20134;-61
2022/01/07 05:54:55;;;;;;;21.10;10.13;;;;;;;3.57;78.05;99255.31;5090419;28;20056;-62
2022/01/07 05:57:21;;;;;;;16.55;9.82;;;;;;;3.60;78.23;99252.59;5090206;28;20062;-60
2022/01/07 05:59:48;;;;;;;20.17;9.93;;;;;;;3.60;78.43;99260.41;5089854;28;20048;-63
2022/01/07 06:02:15;;;;;;;16.23;10.05;;;;;;;3.61;78.08;99251.69;5089984;28;20048;-60
2022/01/07 06:04:46;;;;;;;17.08;9.30;;;;;;;3.60;78.28;99245.66;5089873;28;20092;-62
2022/01/07 06:07:13;;;;;;;16.20;10.13;;;;;;;3.61;77.70;99256.91;5090143;28;20097;-62
2022/01/07 06:09:39;;;;;;;17.10;9.95;;;;;;;3.62;77.94;99240.38;5088709;28;20102;-61
2022/01/07 06:12:07;;;;;;;17.38;10.05;;;;;;;3.60;78.04;99247.41;5093960;28;20105;-61
2022/01/07 06:14:33;;;;;;;19.42;9.35;;;;;;;3.61;78.12;99236.94;5093787;28;20044;-60
2022/01/07 06:17:00;;;;;;;16.02;8.82;;;;;;;3.63;78.30;99234.28;5093589;28;20052;-62
2022/01/07 06:19:27;;;;;;;21.70;9.88;;;;;;;3.64;78.31;99239.44;5093418;28;20052;-60
2022/01/07 06:21:53;;;;;;;15.80;10.35;;;;;;;3.62;77.85;99238.63;5094002;28;20047;-61
2022/01/07 06:24:20;;;;;;;12.65;9.10;;;;;;;3.64;78.08;99228.16;5093759;28;20048;-61
2022/01/07 06:26:46;;;;;;;16.02;9.55;;;;;;;3.64;78.11;99228.16;5093692;28;20156;-63
2022/01/07 06:29:13;;;;;;;14.30;9.75;;;;;;;3.67;78.39;99227.19;5093300;28;20059;-63
2022/01/07 06:31:39;;;;;;;16.30;10.10;;;;;;;3.68;78.21;99245.38;5093294;28;20052;-60
2022/01/07 06:34:06;;;;;;;14.82;8.93;;;;;;;3.70;78.18;99242.72;5092128;28;20066;-61
2022/01/07 06:36:33;;;;;;;13.40;9.38;;;;;;;3.70;77.87;99221.88;5093225;28;20481;-63
2022/01/07 06:38:59;;;;;;;13.90;9.63;;;;;;;3.72;78.01;99235.69;5093667;28;20052;-60
2022/01/07 06:41:26;;;;;;;15.55;9.68;;;;;;;3.73;78.41;99227.81;5092807;28;20447;-61
2022/01/07 06:43:52;;;;;;;21.30;9.68;;;;;;;3.75;78.13;99230.38;5093027;28;20086;-61
2022/01/07 06:46:19;;;;;;;18.25;9.52;;;;;;;3.76;77.88;99229.44;5093001;28;20044;-63
2022/01/07 06:48:47;;;;;;;14.18;9.45;;;;;;;3.76;78.06;99225.09;5093093;28;20049;-60
2022/01/07 06:51:14;;;;;;;18.77;10.20;;;;;;;3.76;77.92;99229.44;5093017;28;20051;-61
2022/01/07 06:53:40;;;;;;;12.48;8.70;;;;;;;3.76;78.03;99230.31;5093190;28;20052;-60
2022/01/07 06:56:07;;;;;;;15.40;9.40;;;;;;;3.78;78.34;99228.50;5093038;28;20056;-60
2022/01/07 06:58:33;;;;;;;13.32;8.80;;;;;;;3.80;77.99;99230.19;5092767;28;20060;-61
2022/01/07 07:01:00;;;;;;;17.15;10.75;;;;;;;3.76;77.64;99243.34;5092476;28;20048;-61
2022/01/07 07:03:27;;;;;;;17.10;10.40;;;;;;;3.78;78.08;99225.88;5092861;28;20048;-60
2022/01/07 07:05:53;;;;;;;17.85;10.35;;;;;;;3.78;77.94;99232.88;5092928;28;20109;-61
2022/01/07 07:08:20;;;;;;;14.90;9.30;;;;;;;3.80;77.99;99227.56;5092720;28;20052;-61
2022/01/07 07:10:47;;;;;;;12.18;9.40;;;;;;;3.80;78.00;99227.56;5092024;28;20044;-61
2022/01/07 07:13:13;;;;;;;16.33;9.80;;;;;;;3.83;78.54;99219.66;5092580;28;20122;-62
2022/01/07 07:15:40;;;;;;;16.85;8.80;;;;;;;3.83;78.28;99232.69;5092458;28;20109;-63
2022/01/07 07:18:06;;;;;;;15.07;10.07;;;;;;;3.82;78.20;99225.78;5092719;28;20066;-60
2022/01/07 07:20:33;;;;;;;15.05;9.85;;;;;;;3.83;78.37;99223.13;5092512;28;20082;-60
2022/01/07 07:23:00;;;;;;;16.80;10.20;;;;;;;3.83;77.76;99230.94;5091993;28;20051;-61
2022/01/07 07:25:26;;;;;;;14.27;10.85;;;;;;;3.83;77.91;99225.72;5092627;28;20102;-60
2022/01/07 07:27:53;;;;;;;15.15;9.48;;;;;;;3.86;78.10;99214.34;5091972;28;20051;-60
2022/01/07 07:30:20;;;;;;;18.67;9.88;;;;;;;3.86;78.27;99214.34;5091999;28;20051;-60
2022/01/07 07:32:48;;;;;;;20.35;11.23;;;;;;;3.88;78.08;99230.75;5092354;28;20089;-61
2022/01/07 07:37:44;;;;;;;15.50;10.43;;;;;;;3.89;78.40;99232.47;5092223;28;20485;-65
2022/01/07 07:40:11;;;;;;;19.55;12.93;;;;;;;3.89;77.86;99227.25;5091875;28;20048;-64
2022/01/07 07:42:38;;;;;;;17.30;11.05;;;;;;;3.90;78.29;99232.38;5091794;28;20040;-63
2022/01/07 07:45:06;;;;;;;16.10;11.32;;;;;;;3.93;78.41;99238.38;5090745;28;20109;-64
2022/01/07 07:47:34;;;;;;;16.08;10.32;;;;;;;3.91;78.45;99226.28;5091885;28;20101;-64
2022/01/07 07:50:01;;;;;;;13.75;11.23;;;;;;;3.94;78.61;99240.94;5091863;28;20106;-61
2022/01/07 07:52:28;;;;;;;12.90;10.18;;;;;;;3.97;78.44;99234.75;5091909;28;20051;-63
2022/01/07 07:54:55;;;;;;;16.40;11.27;;;;;;;3.98;78.46;99231.25;5091934;28;20458;-63
2022/01/07 07:57:21;;;;;;;15.85;11.63;;;;;;;3.99;78.59;99239.00;5091458;28;20051;-63
2022/01/07 07:59:49;;;;;;;16.35;12.02;;;;;;;4.01;78.55;99236.34;5091988;28;20077;-64
2022/01/07 08:02:16;;;;;;;16.90;12.15;;;;;;;4.01;78.05;99252.81;5090223;28;20508;-64
2022/01/07 08:04:43;;;;;;;23.60;12.85;;;;;;;4.03;78.00;99248.41;5091458;28;20084;-65
2022/01/07 08:07:15;;;;;;;18.83;13.32;;;;;;;4.05;78.49;99235.31;5090808;28;20052;-64
2022/01/07 08:09:43;;;;;;;19.05;13.43;;;;;;;4.07;78.53;99240.47;5091255;28;20077;-64
2022/01/07 08:12:25;;;;;;;19.45;13.95;;;;;;;4.07;78.29;99230.88;5090273;28;20097;-63
2022/01/07 08:17:37;;;;;;;17.45;13.43;;;;;;;4.10;78.52;99245.53;5091570;28;20047;-65
2022/01/07 08:20:05;;;;;;;20.33;15.95;;;;;;;4.11;78.16;99234.25;5091179;28;20105;-64
2022/01/07 08:22:32;;;;;;;23.73;15.60;;;;;;;4.12;78.31;99234.16;5090271;28;20048;-64
2022/01/07 08:24:58;;;;;;;20.85;15.93;;;;;;;4.14;78.28;99242.78;5089774;28;20052;-64
2022/01/07 08:27:25;;;;;;;23.10;17.27;;;;;;;4.13;78.52;99238.47;5091342;28;20116;-67
2022/01/07 08:30:12;;;;;;;22.50;16.52;;;;;;;4.13;78.36;99242.84;5090976;28;20135;-62
2022/01/07 08:35:27;;;;;;;22.38;16.77;;;;;;;4.15;78.41;99231.44;5091294;28;20412;-61
2022/01/07 08:37:53;;;;;;;28.00;18.40;;;;;;;4.16;78.33;99240.13;5091053;28;20052;-62
2022/01/07 08:40:20;;;;;;;25.73;18.17;;;;;;;4.18;78.57;99230.47;5090647;28;20044;-61
2022/01/07 08:42:47;;;;;;;27.38;18.80;;;;;;;4.19;78.26;99231.31;5090664;28;20051;-62
2022/01/07 08:45:13;;;;;;;29.52;19.33;;;;;;;4.21;78.56;99232.09;5090547;28;20090;-60
2022/01/07 08:47:40;;;;;;;27.40;19.30;;;;;;;4.22;78.56;99223.41;5089325;28;20454;-61
2022/01/07 08:50:07;;;;;;;37.22;21.33;;;;;;;4.26;78.65;99235.41;5090703;28;20047;-61
2022/01/07 08:52:33;;;;;;;33.53;20.42;;;;;;;4.25;78.83;99241.50;5089337;28;20051;-60
2022/01/07 08:55:00;;;;;;;29.92;20.98;;;;;;;4.27;78.80;99242.31;5083482;28;20078;-64
2022/01/07 08:57:27;;;;;;;33.03;21.10;;;;;;;4.30;79.01;99236.97;5089716;28;20101;-61
2022/01/07 08:59:53;;;;;;;34.85;23.25;;;;;;;4.32;78.89;99234.28;5089933;28;20052;-60
2022/01/07 09:02:21;;;;;;;34.25;21.35;;;;;;;4.34;78.99;99238.53;5090583;28;20048;-60
2022/01/07 09:04:48;;;;;;;32.28;23.02;;;;;;;4.35;78.80;99228.97;5090170;28;20546;-62
2022/01/07 09:07:14;;;;;;;31.73;21.45;;;;;;;4.37;79.04;99227.16;5090440;28;20125;-61
2022/01/07 09:09:41;;;;;;;35.50;23.13;;;;;;;4.39;78.77;99236.59;5088420;28;20056;-61
2022/01/07 09:12:09;;;;;;;32.67;24.67;;;;;;;4.41;78.70;99231.34;5090117;28;20051;-60
2022/01/07 09:14:36;;;;;;;34.50;24.50;;;;;;;4.42;78.79;99233.03;5088728;28;20056;-61
2022/01/07 09:17:03;;;;;;;35.13;23.50;;;;;;;4.46;78.85;99233.75;5090262;28;20101;-61
2022/01/07 09:19:29;;;;;;;33.10;22.08;;;;;;;4.47;79.06;99233.69;5089764;28;20097;-60
2022/01/07 09:21:56;;;;;;;30.40;21.45;;;;;;;4.49;79.00;99234.47;5090297;28;20057;-61
2022/01/07 09:24:25;;;;;;;37.88;23.52;;;;;;;4.51;78.89;99235.25;5090126;28;20063;-63
2022/01/07 09:26:52;;;;;;;34.55;22.38;;;;;;;4.54;78.94;99234.28;5090046;28;20113;-61
2022/01/07 09:29:18;;;;;;;35.65;22.50;;;;;;;4.55;78.90;99246.41;5089609;28;20048;-61
2022/01/07 09:31:45;;;;;;;33.65;22.83;;;;;;;4.55;78.77;99239.44;5090212;28;20454;-60
2022/01/07 09:34:11;;;;;;;36.58;23.60;;;;;;;4.57;78.85;99248.03;5090088;28;20048;-60
2022/01/07 09:36:54;;;;;;;32.60;22.30;;;;;;;4.60;78.93;99233.19;5088914;28;20114;-60
2022/01/07 09:39:20;;;;;;;31.33;22.45;;;;;;;4.62;78.99;99239.19;5089258;28;20052;-60
2022/01/07 09:41:47;;;;;;;38.40;23.77;;;;;;;4.63;79.02;99244.34;5090002;28;20048;-61
2022/01/07 09:44:14;;;;;;;39.15;23.38;;;;;;;4.67;79.13;99237.22;5089602;28;20048;-61
2022/01/07 09:46:41;;;;;;;33.55;23.45;;;;;;;4.68;78.98;99241.56;5093433;28;20554;-60
2022/01/07 09:49:08;;;;;;;36.35;23.67;;;;;;;4.70;79.22;99239.72;5092186;28;20055;-60
2022/01/07 09:51:39;;;;;;;34.75;24.17;;;;;;;4.72;78.89;99237.91;5094241;28;20097;-60
2022/01/07 09:54:08;;;;;;;39.50;24.80;;;;;;;4.76;79.08;99239.47;5093444;28;20063;-59
2022/01/07 09:56:35;;;;;;;33.30;22.55;;;;;;;4.78;79.13;99237.66;5094085;28;20117;-60
2022/01/07 09:59:05;;;;;;;33.50;24.15;;;;;;;4.79;78.95;99244.53;5093639;28;20496;-61
2022/01/07 10:01:58;;;;;;;34.17;23.90;;;;;;;4.79;77.82;99244.53;5092284;28;20451;-60
2022/01/07 10:04:31;;;;;;;34.22;22.80;;;;;;;4.83;78.60;99246.13;5093419;28;20050;-61
2022/01/07 10:07:13;;;;;;;37.13;22.60;;;;;;;4.82;77.86;99249.66;5094268;28;20052;-60
2022/01/07 10:09:41;;;;;;;34.25;22.20;;;;;;;4.88;78.97;99250.28;5093060;28;20047;-60
2022/01/07 10:12:08;;;;;;;35.55;22.80;;;;;;;4.90;79.08;99249.31;5092356;28;20056;-60
2022/01/07 10:14:36;;;;;;;34.70;22.00;;;;;;;4.93;79.14;99241.38;5093372;28;20051;-60
2022/01/07 10:17:03;;;;;;;43.22;24.35;;;;;;;4.95;78.89;99242.16;5092325;28;20102;-60
2022/01/07 10:19:33;;;;;;;35.80;23.33;;;;;;;4.96;79.05;99235.19;5091841;28;20071;-60
2022/01/07 10:22:04;;;;;;;39.53;23.33;;;;;;;4.97;78.74;99230.81;5093834;28;20047;-60
2022/01/07 10:24:32;;;;;;;35.80;21.52;;;;;;;5.02;79.20;99226.25;5092109;28;20114;-61
2022/01/07 10:27:13;;;;;;;38.40;23.48;;;;;;;5.00;78.08;99212.41;5093506;28;20048;-60
2022/01/07 10:29:44;;;;;;;31.63;22.27;;;;;;;5.03;78.72;99215.75;5091699;28;20044;-61
2022/01/07 10:32:26;;;;;;;37.80;22.25;;;;;;;5.03;78.15;99207.06;5092056;28;20109;-60
2022/01/07 10:35:12;;;;;;;37.60;23.03;;;;;;;5.05;78.08;99215.69;5093157;28;20048;-60
2022/01/07 10:38:00;;;;;;;36.30;22.63;;;;;;;5.07;77.99;99217.31;5093010;28;20552;-60
2022/01/07 10:40:37;;;;;;;31.83;20.75;;;;;;;5.08;78.42;99207.72;5092399;28;20044;-60
2022/01/07 10:43:18;;;;;;;28.48;20.98;;;;;;;5.08;77.80;99203.34;5091975;28;20070;-60
2022/01/07 10:45:49;;;;;;;33.83;21.10;;;;;;;5.11;78.20;99201.50;5091589;28;20059;-62
2022/01/07 10:48:17;;;;;;;33.50;23.40;;;;;;;5.14;78.72;99204.84;5092785;28;20056;-61
2022/01/07 10:50:46;;;;;;;32.28;21.45;;;;;;;5.15;78.90;99209.16;5091231;28;20101;-60
2022/01/07 10:53:23;;;;;;;31.05;21.27;;;;;;;5.18;78.92;99209.03;5091405;28;20526;-60
2022/01/07 10:56:10;;;;;;;37.63;22.38;;;;;;;5.20;78.41;99208.97;5090937;28;20577;-61
2022/01/07 10:58:43;;;;;;;36.72;21.98;;;;;;;5.22;78.34;99201.91;5090791;28;20496;-61
2022/01/07 11:01:19;;;;;;;31.75;21.65;;;;;;;5.25;78.11;99198.31;5092331;28;20392;-61
2022/01/07 11:03:51;;;;;;;28.67;20.95;;;;;;;5.28;78.72;99206.88;5092480;28;20463;-61
2022/01/07 11:06:18;;;;;;;32.17;21.02;;;;;;;5.32;79.10;99210.19;5092470;28;20472;-61
2022/01/07 11:08:48;;;;;;;38.42;22.80;;;;;;;5.32;78.85;99205.81;5090021;28;20052;-61
2022/01/07 11:11:17;;;;;;;33.55;22.92;;;;;;;5.36;79.03;99198.69;5092221;28;20044;-61
2022/01/07 11:13:43;;;;;;;30.73;22.40;;;;;;;5.39;79.02;99200.31;5089881;28;20044;-61
2022/01/07 11:16:10;;;;;;;30.73;22.48;;;;;;;5.40;78.90;99200.25;5090914;28;20074;-60
2022/01/07 11:18:39;;;;;;;33.92;22.67;;;;;;;5.42;78.64;99195.78;5092007;28;20083;-62
2022/01/07 11:21:07;;;;;;;32.63;22.23;;;;;;;5.44;78.85;99182.69;5092212;28;20047;-60
2022/01/07 11:23:39;;;;;;;35.80;23.70;;;;;;;5.44;78.83;99183.53;5090845;28;20105;-61
2022/01/07 11:26:08;;;;;;;36.20;23.27;;;;;;;5.47;78.54;99177.31;5091154;28;20169;-62
2022/01/07 11:28:36;;;;;;;40.70;22.70;;;;;;;5.48;78.98;99179.88;5091176;28;20044;-60
2022/01/07 11:31:02;;;;;;;39.30;23.92;;;;;;;5.50;78.90;99171.97;5092274;28;20052;-62
2022/01/07 11:33:30;;;;;;;34.47;22.13;;;;;;;5.52;78.69;99172.75;5091085;28;20066;-61
2022/01/07 11:35:57;;;;;;;29.27;20.08;;;;;;;5.54;79.03;99173.53;5092299;28;20097;-60
2022/01/07 11:38:44;;;;;;;30.02;22.48;;;;;;;5.53;77.54;99160.53;5090840;28;20082;-62
2022/01/07 11:41:43;;;;;;;31.08;19.38;;;;;;;5.55;77.63;99164.78;5091872;28;20048;-61